createdAt,value
2023-02-22T00:01:19.546Z,12.00
2023-02-22T00:04:07.962Z,12.00
2023-02-22T00:06:55.507Z,11.90
2023-02-22T00:09:43.049Z,11.90
2023-02-22T00:12:31.383Z,12.00
2023-02-22T00:15:27.450Z,11.90
2023-02-22T00:18:19.196Z,11.80
2023-02-22T00:21:10.783Z,11.80
2023-02-22T00:23:58.363Z,11.80
2023-02-22T00:26:47.228Z,11.90
2023-02-22T00:29:35.504Z,11.80
2023-02-22T00:32:23.845Z,11.70
2023-02-22T00:35:11.573Z,11.70
2023-02-22T00:38:01.798Z,11.60
2023-02-22T00:40:49.412Z,11.60
2023-02-22T00:43:37.201Z,11.60
2023-02-22T00:46:24.827Z,11.60
2023-02-22T00:49:12.393Z,11.60
2023-02-22T00:52:00.018Z,11.60
2023-02-22T00:54:47.572Z,11.50
2023-02-22T00:57:35.356Z,11.50
2023-02-22T01:00:30.837Z,11.60
2023-02-22T01:03:20.919Z,11.40
2023-02-22T01:06:09.237Z,11.50
2023-02-22T01:08:56.774Z,11.40
2023-02-22T01:11:45.482Z,11.40
2023-02-22T01:14:33.613Z,11.40
2023-02-22T01:17:21.446Z,11.40
2023-02-22T01:20:14.812Z,11.40
2023-02-22T01:23:06.742Z,11.30
2023-02-22T01:25:54.598Z,11.30
2023-02-22T01:28:42.138Z,11.10
2023-02-22T01:31:29.860Z,11.10
2023-02-22T01:34:19.305Z,11.10
2023-02-22T01:37:06.830Z,11.00
2023-02-22T01:39:54.384Z,11.00
2023-02-22T01:42:42.066Z,11.00
2023-02-22T01:45:35.018Z,11.00
2023-02-22T01:48:49.530Z,11.10
2023-02-22T01:51:46.872Z,11.10
2023-02-22T01:54:46.571Z,11.10
2023-02-22T01:57:37.878Z,11.00
2023-02-22T02:00:28.013Z,11.00
2023-02-22T02:03:27.809Z,11.00
2023-02-22T02:06:16.915Z,10.90
2023-02-22T02:09:47.599Z,10.90
2023-02-22T02:12:37.521Z,10.90
2023-02-22T02:15:31.840Z,10.80
2023-02-22T02:18:19.469Z,10.80
2023-02-22T02:21:21.701Z,10.80
2023-02-22T02:25:09.009Z,10.90
2023-02-22T02:28:28.217Z,10.80
2023-02-22T02:31:37.125Z,10.70
2023-02-22T02:34:41.129Z,10.60
2023-02-22T02:37:55.976Z,10.70
2023-02-22T02:41:11.646Z,10.60
2023-02-22T02:44:56.323Z,10.60
2023-02-22T02:47:56.682Z,10.60
2023-02-22T02:50:49.377Z,10.60
2023-02-22T02:53:43.382Z,10.60
2023-02-22T02:56:31.586Z,10.50
2023-02-22T02:59:33.636Z,10.60
2023-02-22T03:02:47.367Z,10.50
2023-02-22T03:05:59.682Z,10.50
2023-02-22T03:09:08.094Z,10.50
2023-02-22T03:12:19.297Z,10.50
2023-02-22T03:15:49.434Z,10.40
2023-02-22T03:19:20.414Z,10.30
2023-02-22T03:22:18.860Z,10.10
2023-02-22T03:25:15.175Z,10.20
2023-02-22T03:28:11.707Z,10.20
2023-02-22T03:31:06.141Z,10.10
2023-02-22T03:34:01.268Z,10.10
2023-02-22T03:37:06.776Z,10.20
2023-02-22T03:39:59.750Z,10.20
2023-02-22T03:42:59.383Z,10.10
2023-02-22T03:46:05.654Z,10.10
2023-02-22T03:49:16.012Z,10.10
2023-02-22T03:52:05.377Z,10.30
2023-02-22T03:54:53.981Z,10.20
2023-02-22T03:57:52.004Z,10.20
2023-02-22T04:00:44.686Z,10.20
2023-02-22T04:03:32.328Z,10.00
2023-02-22T04:06:19.965Z,10.00
2023-02-22T04:09:08.768Z,10.10
2023-02-22T04:11:56.318Z,10.10
2023-02-22T04:14:43.853Z,10.00
2023-02-22T04:17:31.409Z,9.90
2023-02-22T04:20:20.342Z,9.90
2023-02-22T04:23:07.890Z,9.90
2023-02-22T04:25:55.710Z,9.90
2023-02-22T04:28:43.409Z,9.90
2023-02-22T04:31:33.993Z,9.90
2023-02-22T04:34:22.071Z,9.90
2023-02-22T04:37:10.604Z,9.80
2023-02-22T04:39:58.367Z,9.90
2023-02-22T04:42:45.962Z,9.90
2023-02-22T04:45:33.502Z,10.00
2023-02-22T04:48:21.250Z,10.10
2023-02-22T04:51:08.827Z,10.10
2023-02-22T04:53:56.536Z,10.00
2023-02-22T04:56:45.170Z,9.90
2023-02-22T04:59:33.124Z,9.90
2023-02-22T05:02:21.115Z,9.70
2023-02-22T05:05:08.909Z,9.80
2023-02-22T05:07:56.708Z,9.80
2023-02-22T05:10:44.547Z,9.70
2023-02-22T05:13:32.419Z,9.60
2023-02-22T05:16:20.075Z,9.60
2023-02-22T05:19:07.656Z,9.60
2023-02-22T05:21:56.653Z,9.60
2023-02-22T05:24:44.525Z,9.60
2023-02-22T05:27:32.126Z,9.60
2023-02-22T05:30:25.142Z,9.70
2023-02-22T05:33:13.362Z,9.60
2023-02-22T05:36:01.229Z,9.60
2023-02-22T05:38:48.949Z,9.50
2023-02-22T05:41:36.557Z,9.60
2023-02-22T05:44:25.021Z,9.50
2023-02-22T05:47:12.610Z,9.60
2023-02-22T05:50:00.405Z,9.70
2023-02-22T05:52:49.443Z,9.70
2023-02-22T05:55:37.489Z,9.70
2023-02-22T05:58:25.009Z,9.70
2023-02-22T06:01:12.754Z,9.80
2023-02-22T06:04:00.245Z,9.80
2023-02-22T06:06:47.804Z,9.90
2023-02-22T06:09:35.343Z,10.00
2023-02-22T06:12:22.888Z,10.00
2023-02-22T06:15:10.757Z,10.10
2023-02-22T06:18:00.314Z,10.10
2023-02-22T06:20:48.015Z,10.20
2023-02-22T06:23:35.772Z,10.20
2023-02-22T06:26:23.305Z,10.40
2023-02-22T06:29:11.177Z,10.50
2023-02-22T06:31:58.799Z,10.40
2023-02-22T06:34:46.413Z,10.50
2023-02-22T06:37:34.425Z,10.80
2023-02-22T06:40:21.976Z,10.80
2023-02-22T06:43:11.549Z,10.90
2023-02-22T06:45:59.107Z,10.90
2023-02-22T06:48:46.836Z,11.20
2023-02-22T06:51:38.095Z,11.20
2023-02-22T06:54:25.661Z,11.20
2023-02-22T06:57:13.176Z,11.40
2023-02-22T07:00:00.709Z,11.60
2023-02-22T07:02:48.887Z,11.60
2023-02-22T07:05:36.679Z,11.70
2023-02-22T07:08:24.144Z,11.60
2023-02-22T07:11:11.803Z,11.80
2023-02-22T07:13:59.331Z,12.00
2023-02-22T07:16:46.905Z,12.10
2023-02-22T07:19:34.706Z,12.10
2023-02-22T07:22:22.226Z,12.20
2023-02-22T07:25:11.540Z,12.30
2023-02-22T07:27:59.814Z,12.50
2023-02-22T07:30:47.846Z,12.60
2023-02-22T07:33:35.637Z,12.70
2023-02-22T07:36:23.240Z,12.80
2023-02-22T07:39:11.491Z,12.70
2023-02-22T07:41:59.423Z,12.70
2023-02-22T07:44:46.958Z,13.00
2023-02-22T07:47:34.455Z,13.10
2023-02-22T07:50:24.418Z,13.20
2023-02-22T07:53:28.619Z,13.50
2023-02-22T07:56:18.285Z,13.50
2023-02-22T07:59:05.852Z,13.70
2023-02-22T08:01:53.355Z,14.00
2023-02-22T08:04:40.970Z,13.90
2023-02-22T08:07:28.568Z,14.20
2023-02-22T08:10:19.467Z,14.40
2023-02-22T08:13:07.187Z,14.80
2023-02-22T08:15:56.203Z,14.80
2023-02-22T08:18:43.812Z,15.00
2023-02-22T08:21:31.281Z,15.20
2023-02-22T08:24:18.784Z,15.40
2023-02-22T08:27:06.754Z,15.70
2023-02-22T08:29:56.055Z,16.00
2023-02-22T08:32:45.599Z,16.00
2023-02-22T08:35:34.369Z,16.20
2023-02-22T08:38:29.722Z,16.60
2023-02-22T08:41:17.627Z,16.70
2023-02-22T08:44:05.402Z,16.80
2023-02-22T08:46:53.038Z,17.00
2023-02-22T08:49:40.566Z,17.10
2023-02-22T08:52:28.204Z,17.30
2023-02-22T08:55:15.720Z,17.40
2023-02-22T08:58:05.741Z,17.50
2023-02-22T09:00:54.244Z,17.70
2023-02-22T09:03:41.830Z,17.90
2023-02-22T09:06:30.041Z,18.30
2023-02-22T09:09:21.651Z,18.50
2023-02-22T09:12:09.499Z,18.10
2023-02-22T09:14:57.025Z,18.10
2023-02-22T09:17:45.398Z,18.20
2023-02-22T09:20:32.921Z,18.50
2023-02-22T09:23:21.736Z,18.50
2023-02-22T09:26:10.484Z,19.00
2023-02-22T09:28:58.020Z,19.00
2023-02-22T09:31:45.980Z,19.50
2023-02-22T09:34:35.591Z,19.10
2023-02-22T09:37:23.325Z,19.70
2023-02-22T09:40:25.278Z,19.70
2023-02-22T09:43:37.411Z,19.90
2023-02-22T09:46:42.234Z,19.90
2023-02-22T09:49:40.313Z,20.40
2023-02-22T09:52:41.707Z,20.50
2023-02-22T09:55:47.961Z,21.10
2023-02-22T09:58:43.160Z,20.60
2023-02-22T10:01:48.104Z,21.20
2023-02-22T10:04:53.098Z,21.10
2023-02-22T10:07:52.666Z,21.30
2023-02-22T10:10:46.237Z,21.30
2023-02-22T10:14:16.138Z,21.10
2023-02-22T10:17:24.476Z,21.30
2023-02-22T10:20:25.414Z,20.80
2023-02-22T10:23:36.656Z,20.20
2023-02-22T10:26:37.134Z,20.90
2023-02-22T10:30:15.658Z,21.10
2023-02-22T10:33:27.459Z,21.40
2023-02-22T10:36:20.924Z,21.80
2023-02-22T10:39:33.879Z,21.60
2023-02-22T10:42:27.548Z,21.50
2023-02-22T10:45:32.625Z,21.70
2023-02-22T10:48:32.742Z,21.40
2023-02-22T10:51:21.167Z,21.40
2023-02-22T10:54:14.171Z,21.90
2023-02-22T10:57:03.940Z,22.20
2023-02-22T10:59:52.616Z,21.60
2023-02-22T11:02:57.761Z,21.90
2023-02-22T11:05:46.062Z,21.90
2023-02-22T11:08:33.657Z,21.50
2023-02-22T11:11:25.923Z,22.20
2023-02-22T11:14:27.592Z,22.00
2023-02-22T11:17:34.505Z,22.10
2023-02-22T11:20:38.657Z,22.40
2023-02-22T11:23:26.526Z,23.00
2023-02-22T11:26:20.808Z,22.30
2023-02-22T11:29:25.570Z,22.00
2023-02-22T11:32:22.539Z,22.20
2023-02-22T11:35:36.088Z,22.50
2023-02-22T11:38:39.595Z,22.60
2023-02-22T11:41:35.935Z,22.80
2023-02-22T11:44:30.851Z,23.20
2023-02-22T11:47:25.501Z,23.40
2023-02-22T11:50:58.108Z,23.20
2023-02-22T11:53:54.730Z,23.00
2023-02-22T11:56:57.989Z,23.00
2023-02-22T12:00:24.986Z,23.10
2023-02-22T12:03:43.061Z,23.30
2023-02-22T12:07:05.053Z,22.90
2023-02-22T12:10:15.743Z,22.70
2023-02-22T12:14:14.314Z,23.50
2023-02-22T12:17:39.013Z,24.00
2023-02-22T12:20:39.980Z,23.90
2023-02-22T12:24:07.366Z,24.20
2023-02-22T12:27:18.079Z,23.80
2023-02-22T12:30:32.833Z,24.00
2023-02-22T12:33:29.227Z,23.90
2023-02-22T12:36:25.100Z,24.10
2023-02-22T12:39:52.628Z,24.30
2023-02-22T12:43:27.225Z,23.80
2023-02-22T12:46:24.617Z,24.00
2023-02-22T12:49:25.778Z,24.70
2023-02-22T12:52:22.105Z,24.30
2023-02-22T12:55:32.628Z,24.60
2023-02-22T12:59:03.176Z,24.70
2023-02-22T13:02:47.907Z,24.60
2023-02-22T13:05:40.704Z,24.40
2023-02-22T13:08:47.327Z,24.90
2023-02-22T13:11:56.011Z,25.20
2023-02-22T13:15:05.018Z,25.10
2023-02-22T13:18:19.558Z,25.20
2023-02-22T13:21:41.125Z,25.20
2023-02-22T13:25:22.829Z,24.70
2023-02-22T13:28:13.319Z,24.80
2023-02-22T13:31:30.531Z,24.70
2023-02-22T13:34:30.732Z,24.50
2023-02-22T13:38:04.626Z,25.10
2023-02-22T13:41:23.023Z,25.10
2023-02-22T13:44:30.883Z,24.90
2023-02-22T13:47:55.271Z,25.20
2023-02-22T13:51:04.823Z,24.70
2023-02-22T13:54:06.153Z,24.50
2023-02-22T13:56:57.127Z,24.40
2023-02-22T13:59:47.276Z,25.10
2023-02-22T14:03:01.919Z,24.60
2023-02-22T14:05:52.726Z,24.30
2023-02-22T14:08:42.013Z,24.30
2023-02-22T14:11:32.330Z,24.10
2023-02-22T14:14:20.371Z,24.40
2023-02-22T14:17:21.974Z,24.60
2023-02-22T14:20:21.329Z,24.60
2023-02-22T14:23:31.361Z,24.70
2023-02-22T14:26:38.329Z,25.00
2023-02-22T14:29:26.420Z,24.50
2023-02-22T14:32:15.255Z,24.70
2023-02-22T14:35:49.402Z,24.50
2023-02-22T14:38:38.508Z,24.80
2023-02-22T14:41:30.596Z,24.70
2023-02-22T14:44:26.850Z,24.50
2023-02-22T14:47:28.398Z,24.60
2023-02-22T14:50:33.850Z,24.20
2023-02-22T14:53:33.104Z,24.50
2023-02-22T14:56:31.185Z,24.00
2023-02-22T14:59:27.425Z,24.00
2023-02-22T15:02:15.159Z,24.10
2023-02-22T15:05:05.267Z,24.50
2023-02-22T15:08:00.877Z,24.50
2023-02-22T15:10:52.312Z,24.10
2023-02-22T15:13:52.769Z,24.00
2023-02-22T15:16:56.165Z,24.40
2023-02-22T15:19:44.138Z,24.40
2023-02-22T15:22:36.813Z,24.10
2023-02-22T15:25:28.977Z,24.20
2023-02-22T15:28:18.687Z,23.90
2023-02-22T15:31:38.159Z,24.00
2023-02-22T15:34:32.750Z,23.50
2023-02-22T15:37:25.730Z,23.60
2023-02-22T15:40:21.047Z,23.30
2023-02-22T15:43:18.521Z,23.40
2023-02-22T15:46:08.203Z,23.00
2023-02-22T15:49:19.597Z,22.80
2023-02-22T15:52:20.907Z,23.20
2023-02-22T15:55:11.774Z,23.10
2023-02-22T15:58:29.329Z,23.00
2023-02-22T16:01:20.888Z,22.80
2023-02-22T16:04:19.534Z,22.70
2023-02-22T16:07:17.185Z,22.70
2023-02-22T16:10:09.413Z,22.70
2023-02-22T16:13:36.428Z,22.30
2023-02-22T16:16:36.680Z,22.00
2023-02-22T16:19:37.809Z,22.10
2023-02-22T16:22:37.586Z,22.00
2023-02-22T16:25:35.751Z,21.90
2023-02-22T16:28:34.050Z,21.60
2023-02-22T16:31:25.678Z,21.50
2023-02-22T16:34:15.345Z,21.30
2023-02-22T16:37:04.184Z,21.60
2023-02-22T16:39:52.074Z,21.10
2023-02-22T16:42:39.706Z,21.50
2023-02-22T16:45:27.854Z,21.40
2023-02-22T16:48:25.583Z,21.20
2023-02-22T16:51:28.491Z,21.30
2023-02-22T16:54:26.666Z,21.10
2023-02-22T16:57:22.392Z,21.30
2023-02-22T17:00:19.429Z,21.00
2023-02-22T17:03:07.017Z,21.30
2023-02-22T17:05:54.886Z,21.00
2023-02-22T17:08:43.118Z,20.90
2023-02-22T17:11:30.724Z,21.00
2023-02-22T17:14:27.193Z,20.90
2023-02-22T17:17:16.260Z,20.80
2023-02-22T17:20:11.599Z,20.80
2023-02-22T17:23:01.600Z,20.90
2023-02-22T17:25:53.650Z,20.70
2023-02-22T17:28:43.849Z,20.80
2023-02-22T17:31:32.427Z,20.40
2023-02-22T17:34:20.575Z,20.70
2023-02-22T17:37:08.349Z,20.50
2023-02-22T17:39:56.014Z,20.00
2023-02-22T17:42:44.971Z,20.10
2023-02-22T17:45:32.562Z,20.30
2023-02-22T17:48:23.803Z,20.30
2023-02-22T17:51:12.723Z,19.80
2023-02-22T17:54:00.380Z,19.90
2023-02-22T17:56:48.080Z,19.70
2023-02-22T17:59:35.910Z,20.00
2023-02-22T18:02:23.574Z,19.80
2023-02-22T18:05:16.396Z,20.00
2023-02-22T18:08:04.019Z,19.90
2023-02-22T18:10:58.370Z,19.90
2023-02-22T18:13:46.547Z,19.80
2023-02-22T18:16:34.392Z,19.60
2023-02-22T18:19:23.365Z,19.70
2023-02-22T18:22:10.992Z,19.70
2023-02-22T18:25:00.987Z,19.70
2023-02-22T18:27:49.647Z,19.50
2023-02-22T18:30:41.253Z,19.60
2023-02-22T18:33:29.029Z,19.50
2023-02-22T18:36:23.329Z,19.30
2023-02-22T18:39:11.890Z,19.20
2023-02-22T18:41:59.578Z,19.20
2023-02-22T18:44:47.330Z,19.10
2023-02-22T18:47:43.836Z,19.10
2023-02-22T18:50:31.370Z,19.10
2023-02-22T18:53:18.936Z,19.00
2023-02-22T18:56:14.531Z,19.00
2023-02-22T18:59:05.136Z,19.00
2023-02-22T19:01:52.976Z,18.90
2023-02-22T19:04:41.090Z,18.90
2023-02-22T19:07:29.117Z,18.80
2023-02-22T19:10:17.031Z,18.80
2023-02-22T19:13:05.250Z,18.80
2023-02-22T19:15:52.859Z,18.80
2023-02-22T19:18:40.500Z,18.80
2023-02-22T19:21:31.133Z,18.80
2023-02-22T19:24:21.562Z,18.90
2023-02-22T19:27:10.367Z,18.60
2023-02-22T19:29:58.654Z,18.70
2023-02-22T19:32:47.599Z,18.70
2023-02-22T19:35:36.422Z,18.80
2023-02-22T19:38:23.927Z,18.60
2023-02-22T19:41:19.875Z,18.60
2023-02-22T19:44:08.514Z,18.50
2023-02-22T19:46:56.155Z,18.60
2023-02-22T19:49:43.701Z,18.50
2023-02-22T19:52:31.227Z,18.30
2023-02-22T19:55:18.956Z,18.10
2023-02-22T19:58:06.598Z,18.10
2023-02-22T20:00:54.133Z,18.10
2023-02-22T20:03:42.654Z,18.00
2023-02-22T20:06:35.788Z,17.90
2023-02-22T20:09:30.192Z,18.00
2023-02-22T20:12:17.862Z,18.00
2023-02-22T20:15:05.664Z,18.10
2023-02-22T20:17:53.266Z,17.90
2023-02-22T20:20:40.785Z,17.90
2023-02-22T20:23:28.270Z,17.80
2023-02-22T20:26:25.037Z,17.60
2023-02-22T20:29:14.471Z,17.40
2023-02-22T20:32:03.870Z,17.10
2023-02-22T20:34:51.578Z,16.90
2023-02-22T20:37:41.339Z,17.00
2023-02-22T20:40:28.897Z,17.20
2023-02-22T20:43:16.605Z,17.10
2023-02-22T20:46:06.598Z,17.20
2023-02-22T20:48:56.861Z,17.10
2023-02-22T20:51:46.757Z,17.00
2023-02-22T20:54:36.109Z,16.70
2023-02-22T20:57:23.822Z,16.50
2023-02-22T21:00:12.481Z,16.30
2023-02-22T21:03:00.229Z,16.20
2023-02-22T21:05:48.449Z,16.00
2023-02-22T21:08:36.354Z,15.90
2023-02-22T21:11:28.142Z,15.80
2023-02-22T21:14:18.981Z,15.70
2023-02-22T21:17:07.853Z,15.60
2023-02-22T21:19:58.783Z,15.40
2023-02-22T21:22:50.116Z,15.30
2023-02-22T21:25:49.370Z,15.20
2023-02-22T21:28:53.317Z,15.10
2023-02-22T21:31:41.082Z,15.10
2023-02-22T21:34:29.980Z,15.00
2023-02-22T21:37:18.363Z,14.90
2023-02-22T21:40:11.568Z,14.90
2023-02-22T21:42:59.091Z,14.80
2023-02-22T21:45:46.858Z,14.70
2023-02-22T21:48:34.947Z,14.60
2023-02-22T21:51:32.229Z,14.60
2023-02-22T21:54:20.841Z,14.50
2023-02-22T21:57:09.108Z,14.50
2023-02-22T21:59:56.711Z,14.40
2023-02-22T22:02:48.244Z,14.30
2023-02-22T22:05:39.656Z,14.30
2023-02-22T22:08:31.740Z,14.30
2023-02-22T22:11:20.793Z,14.20
2023-02-22T22:14:10.843Z,14.20
2023-02-22T22:17:00.293Z,14.10
2023-02-22T22:19:49.065Z,14.10
2023-02-22T22:22:37.157Z,14.10
2023-02-22T22:25:28.277Z,14.10
2023-02-22T22:28:16.195Z,14.00
2023-02-22T22:31:08.878Z,14.10
2023-02-22T22:33:58.651Z,14.10
2023-02-22T22:36:46.818Z,14.00
2023-02-22T22:39:34.611Z,14.10
2023-02-22T22:42:24.024Z,14.10
2023-02-22T22:45:17.318Z,14.10
2023-02-22T22:48:04.888Z,14.00
2023-02-22T22:51:03.478Z,14.00
2023-02-22T22:53:52.438Z,14.00
2023-02-22T22:56:40.230Z,14.00
2023-02-22T22:59:28.192Z,14.10
2023-02-22T23:02:18.119Z,14.10
2023-02-22T23:05:06.392Z,14.30
2023-02-22T23:07:56.468Z,14.30
2023-02-22T23:10:44.140Z,14.40
2023-02-22T23:13:31.709Z,14.70
2023-02-22T23:16:20.056Z,14.80
2023-02-22T23:19:10.752Z,14.80
2023-02-22T23:21:59.242Z,14.80
2023-02-22T23:24:47.131Z,14.70
2023-02-22T23:27:35.375Z,14.60
2023-02-22T23:30:23.046Z,14.50
2023-02-22T23:33:10.934Z,14.40
2023-02-22T23:35:58.763Z,14.40
2023-02-22T23:38:46.946Z,14.40
2023-02-22T23:41:36.573Z,14.40
2023-02-22T23:44:24.071Z,14.30
2023-02-22T23:47:12.092Z,14.30
2023-02-22T23:49:59.894Z,14.30
2023-02-22T23:52:47.657Z,14.30
2023-02-22T23:55:39.230Z,14.30
2023-02-22T23:58:28.040Z,14.30
